createdAt,value
2019-02-11T00:00:32.168Z,4.99
2019-02-11T00:03:03.440Z,5.05
2019-02-11T00:05:34.528Z,5.03
2019-02-11T00:08:05.250Z,5.11
2019-02-11T00:10:37.322Z,5.01
2019-02-11T00:13:11.445Z,5.03
2019-02-11T00:15:41.972Z,5.07
2019-02-11T00:18:12.472Z,5.02
2019-02-11T00:20:48.689Z,4.99
2019-02-11T00:23:20.560Z,5.01
2019-02-11T00:25:50.859Z,5.00
2019-02-11T00:28:21.418Z,4.99
2019-02-11T00:30:51.814Z,5.08
2019-02-11T00:33:22.217Z,5.11
2019-02-11T00:35:55.818Z,5.07
2019-02-11T00:38:27.145Z,5.14
2019-02-11T00:41:01.698Z,5.17
2019-02-11T00:43:32.483Z,5.10
2019-02-11T00:46:06.737Z,5.07
2019-02-11T00:48:37.695Z,5.04
2019-02-11T00:51:08.118Z,5.04
2019-02-11T00:53:40.215Z,5.07
2019-02-11T00:56:12.406Z,5.04
2019-02-11T00:58:46.632Z,5.06
2019-02-11T01:01:22.956Z,5.04
2019-02-11T01:03:57.104Z,5.08
2019-02-11T01:06:28.190Z,5.06
2019-02-11T01:08:59.246Z,5.15
2019-02-11T01:11:29.910Z,5.14
2019-02-11T01:14:02.226Z,5.21
2019-02-11T01:16:36.730Z,5.20
2019-02-11T01:19:08.471Z,5.19
2019-02-11T01:21:39.931Z,5.21
2019-02-11T01:24:11.514Z,5.19
2019-02-11T01:26:41.832Z,5.23
2019-02-11T01:29:12.112Z,5.18
2019-02-11T01:31:43.176Z,5.22
2019-02-11T01:34:13.404Z,5.26
2019-02-11T01:36:43.710Z,5.21
2019-02-11T01:39:14.748Z,5.22
2019-02-11T01:41:45.045Z,5.23
2019-02-11T01:44:15.298Z,5.17
2019-02-11T01:46:45.576Z,5.19
2019-02-11T01:49:17.586Z,5.20
2019-02-11T01:51:47.837Z,5.09
2019-02-11T01:54:18.709Z,4.91
2019-02-11T01:56:48.911Z,4.83
2019-02-11T01:59:19.168Z,4.97
2019-02-11T02:01:49.288Z,5.00
2019-02-11T02:04:19.717Z,4.99
2019-02-11T02:06:49.837Z,5.00
2019-02-11T02:09:20.221Z,4.99
2019-02-11T02:11:54.737Z,4.99
2019-02-11T02:14:25.056Z,5.04
2019-02-11T02:16:55.560Z,5.01
2019-02-11T02:19:26.998Z,5.14
2019-02-11T02:21:57.545Z,5.16
2019-02-11T02:24:28.386Z,5.22
2019-02-11T02:27:00.650Z,5.14
2019-02-11T02:29:31.076Z,5.12
2019-02-11T02:32:21.998Z,5.22
2019-02-11T02:34:52.277Z,5.14
2019-02-11T02:37:22.433Z,5.15
2019-02-11T02:39:52.635Z,5.19
2019-02-11T02:42:22.936Z,5.16
2019-02-11T02:44:53.130Z,5.19
2019-02-11T02:47:23.277Z,5.12
2019-02-11T02:49:55.499Z,5.15
2019-02-11T02:52:25.703Z,5.23
2019-02-11T02:54:56.038Z,5.24
2019-02-11T02:57:26.267Z,5.31
2019-02-11T02:59:56.596Z,5.23
2019-02-11T03:02:26.887Z,5.31
2019-02-11T03:04:57.157Z,5.27
2019-02-11T03:07:27.639Z,5.21
2019-02-11T03:09:58.424Z,5.24
2019-02-11T03:12:28.619Z,5.28
2019-02-11T03:14:58.918Z,5.31
2019-02-11T03:17:29.167Z,5.28
2019-02-11T03:19:59.433Z,5.32
2019-02-11T03:22:30.043Z,5.32
2019-02-11T03:25:00.282Z,5.34
2019-02-11T03:27:30.455Z,5.33
2019-02-11T03:30:02.778Z,5.35
2019-02-11T03:32:33.191Z,5.34
2019-02-11T03:35:03.363Z,5.39
2019-02-11T03:37:33.568Z,5.42
2019-02-11T03:40:03.773Z,5.44
2019-02-11T03:42:34.030Z,5.46
2019-02-11T03:45:04.683Z,5.37
2019-02-11T03:47:51.563Z,5.45
2019-02-11T03:50:24.783Z,5.46
2019-02-11T03:52:56.925Z,5.34
2019-02-11T03:55:27.710Z,5.36
2019-02-11T03:57:58.276Z,5.37
2019-02-11T04:00:32.150Z,5.39
2019-02-11T04:03:05.302Z,5.40
2019-02-11T04:05:37.159Z,5.40
2019-02-11T04:08:07.352Z,5.37
2019-02-11T04:10:37.565Z,5.36
2019-02-11T04:13:07.739Z,5.35
2019-02-11T04:15:37.996Z,5.39
2019-02-11T04:18:08.230Z,5.39
2019-02-11T04:20:39.014Z,5.41
2019-02-11T04:23:16.087Z,5.43
2019-02-11T04:25:46.754Z,5.43
2019-02-11T04:28:17.523Z,5.41
2019-02-11T04:30:49.316Z,5.46
2019-02-11T04:33:19.588Z,5.51
2019-02-11T04:35:51.644Z,5.42
2019-02-11T04:38:29.283Z,5.48
2019-02-11T04:41:03.090Z,5.44
2019-02-11T04:43:33.314Z,5.53
2019-02-11T04:46:03.625Z,5.50
2019-02-11T04:48:33.969Z,5.44
2019-02-11T04:51:05.596Z,5.46
2019-02-11T04:53:37.170Z,5.58
2019-02-11T04:56:15.424Z,5.48
2019-02-11T04:58:47.764Z,5.64
2019-02-11T05:01:20.714Z,5.60
2019-02-11T05:03:53.951Z,5.56
2019-02-11T05:06:24.638Z,5.54
2019-02-11T05:08:54.842Z,5.55
2019-02-11T05:11:24.961Z,5.64
2019-02-11T05:13:56.335Z,5.62
2019-02-11T05:16:29.257Z,5.59
2019-02-11T05:19:00.818Z,5.54
2019-02-11T05:21:31.005Z,5.56
2019-02-11T05:24:06.055Z,5.41
2019-02-11T05:26:38.010Z,5.36
2019-02-11T05:29:08.377Z,5.43
2019-02-11T05:31:38.685Z,5.49
2019-02-11T05:34:09.252Z,5.51
2019-02-11T05:36:39.459Z,5.49
2019-02-11T05:39:10.951Z,5.45
2019-02-11T05:41:41.658Z,5.40
2019-02-11T05:44:13.443Z,5.37
2019-02-11T05:46:45.330Z,5.25
2019-02-11T05:49:15.729Z,5.27
2019-02-11T05:51:59.339Z,5.30
2019-02-11T05:54:29.814Z,5.25
2019-02-11T05:57:00.520Z,5.23
2019-02-11T05:59:30.537Z,5.23
2019-02-11T06:02:01.978Z,5.18
2019-02-11T06:04:33.340Z,5.17
2019-02-11T06:07:03.710Z,5.17
2019-02-11T06:09:36.604Z,5.18
2019-02-11T06:12:07.681Z,5.23
2019-02-11T06:14:38.123Z,5.22
2019-02-11T06:17:08.613Z,5.24
2019-02-11T06:19:38.862Z,5.08
2019-02-11T06:22:09.989Z,5.05
2019-02-11T06:24:40.457Z,4.98
2019-02-11T06:27:12.497Z,5.09
2019-02-11T06:29:42.953Z,5.09
2019-02-11T06:32:13.395Z,5.17
2019-02-11T06:34:44.003Z,5.11
2019-02-11T06:37:14.177Z,5.12
2019-02-11T06:39:44.726Z,5.11
2019-02-11T06:42:14.938Z,5.23
2019-02-11T06:44:45.117Z,5.17
2019-02-11T06:47:15.295Z,5.16
2019-02-11T06:49:45.313Z,5.20
2019-02-11T06:52:15.701Z,5.28
2019-02-11T06:54:46.566Z,5.20
2019-02-11T06:57:19.008Z,5.14
2019-02-11T06:59:49.436Z,5.23
2019-02-11T07:02:19.659Z,5.21
2019-02-11T07:04:49.930Z,5.26
2019-02-11T07:07:20.620Z,5.39
2019-02-11T07:09:51.372Z,5.35
2019-02-11T07:12:23.667Z,5.34
2019-02-11T07:14:53.915Z,5.35
2019-02-11T07:17:24.944Z,5.28
2019-02-11T07:19:55.297Z,5.21
2019-02-11T07:22:28.131Z,5.24
2019-02-11T07:24:59.354Z,5.22
2019-02-11T07:27:29.517Z,5.10
2019-02-11T07:29:59.710Z,5.06
2019-02-11T07:32:29.898Z,5.02
2019-02-11T07:35:00.329Z,5.06
2019-02-11T07:37:30.529Z,5.21
2019-02-11T07:40:04.248Z,5.19
2019-02-11T07:42:58.966Z,5.06
2019-02-11T07:45:46.126Z,5.14
2019-02-11T07:48:16.359Z,5.08
2019-02-11T07:50:46.688Z,5.03
2019-02-11T07:53:17.346Z,5.09
2019-02-11T07:55:50.878Z,5.09
2019-02-11T07:58:21.370Z,5.01
2019-02-11T08:00:51.727Z,5.13
2019-02-11T08:03:22.106Z,5.03
2019-02-11T08:05:52.880Z,5.07
2019-02-11T08:08:23.260Z,5.15
2019-02-11T08:10:54.221Z,5.15
2019-02-11T08:13:24.723Z,5.23
2019-02-11T08:15:55.190Z,5.17
2019-02-11T08:18:25.540Z,5.20
2019-02-11T08:20:55.911Z,5.16
2019-02-11T08:23:26.044Z,5.18
2019-02-11T08:25:58.441Z,5.15
2019-02-11T08:28:30.195Z,5.13
2019-02-11T08:31:02.478Z,5.23
2019-02-11T08:33:34.896Z,5.16
2019-02-11T08:36:05.362Z,5.15
2019-02-11T08:38:35.510Z,4.96
2019-02-11T08:41:06.144Z,5.01
2019-02-11T08:43:36.319Z,4.91
2019-02-11T08:46:07.562Z,4.81
2019-02-11T08:48:37.830Z,4.84
2019-02-11T08:51:08.620Z,4.89
2019-02-11T08:53:39.797Z,4.88
2019-02-11T08:56:09.938Z,4.97
2019-02-11T08:58:40.420Z,5.04
2019-02-11T09:01:10.687Z,5.19
2019-02-11T09:03:41.302Z,5.28
2019-02-11T09:06:11.547Z,5.43
2019-02-11T09:08:41.803Z,5.60
2019-02-11T09:11:11.984Z,5.60
2019-02-11T09:13:42.287Z,5.65
2019-02-11T09:16:12.459Z,5.72
2019-02-11T09:18:42.626Z,5.50
2019-02-11T09:21:13.257Z,5.33
2019-02-11T09:23:43.776Z,5.34
2019-02-11T09:26:13.942Z,5.48
2019-02-11T09:28:44.210Z,5.53
2019-02-11T09:31:14.443Z,5.52
2019-02-11T09:33:46.042Z,5.63
2019-02-11T09:36:16.237Z,5.71
2019-02-11T09:38:46.484Z,5.79
2019-02-11T09:41:16.889Z,5.73
2019-02-11T09:43:47.073Z,5.97
2019-02-11T09:46:18.587Z,5.99
2019-02-11T09:48:48.879Z,6.12
2019-02-11T09:51:19.190Z,6.03
2019-02-11T09:53:49.759Z,6.19
2019-02-11T09:56:20.493Z,6.32
2019-02-11T09:58:50.894Z,6.21
2019-02-11T10:01:21.931Z,6.40
2019-02-11T10:03:52.491Z,6.59
2019-02-11T10:06:22.805Z,6.63
2019-02-11T10:08:53.286Z,6.72
2019-02-11T10:11:24.106Z,6.62
2019-02-11T10:13:54.651Z,6.60
2019-02-11T10:16:25.722Z,6.71
2019-02-11T10:18:56.251Z,6.62
2019-02-11T10:21:26.677Z,6.49
2019-02-11T10:23:58.722Z,6.36
2019-02-11T10:26:29.075Z,6.44
2019-02-11T10:29:00.176Z,6.55
2019-02-11T10:31:31.507Z,6.51
2019-02-11T10:34:01.771Z,6.66
2019-02-11T10:36:32.204Z,6.54
2019-02-11T10:39:05.065Z,6.46
2019-02-11T10:41:40.175Z,6.67
2019-02-11T10:44:10.395Z,6.65
2019-02-11T10:46:41.773Z,6.59
2019-02-11T10:49:13.105Z,6.68
2019-02-11T10:51:44.470Z,6.75
2019-02-11T10:54:14.485Z,6.72
2019-02-11T10:56:44.811Z,6.73
2019-02-11T10:59:15.237Z,6.62
2019-02-11T11:01:45.566Z,6.68
2019-02-11T11:04:15.839Z,6.72
2019-02-11T11:06:46.080Z,6.73
2019-02-11T11:09:17.861Z,6.69
2019-02-11T11:11:48.368Z,6.79
2019-02-11T11:14:18.797Z,6.78
2019-02-11T11:16:49.139Z,6.70
2019-02-11T11:19:19.532Z,6.76
2019-02-11T11:21:50.484Z,6.73
2019-02-11T11:24:21.385Z,6.77
2019-02-11T11:26:51.886Z,6.86
2019-02-11T11:29:22.168Z,6.93
2019-02-11T11:31:52.440Z,6.90
2019-02-11T11:34:22.830Z,6.91
2019-02-11T11:36:53.096Z,7.03
2019-02-11T11:39:26.264Z,6.99
2019-02-11T11:41:58.543Z,7.06
2019-02-11T11:44:29.436Z,6.91
2019-02-11T11:47:00.098Z,6.97
2019-02-11T11:49:32.091Z,7.04
2019-02-11T11:52:02.558Z,7.11
2019-02-11T11:54:34.931Z,7.09
2019-02-11T11:57:05.599Z,6.71
2019-02-11T11:59:37.711Z,6.55
2019-02-11T12:02:16.199Z,6.47
2019-02-11T12:04:52.248Z,6.44
2019-02-11T12:07:24.992Z,6.60
2019-02-11T12:09:57.516Z,6.49
2019-02-11T12:15:30.388Z,6.37
2019-02-11T12:18:10.049Z,6.39
2019-02-11T12:20:45.170Z,6.43
2019-02-11T12:23:16.126Z,6.28
2019-02-11T12:25:48.790Z,6.36
2019-02-11T12:28:19.265Z,6.29
2019-02-11T12:30:53.553Z,6.41
2019-02-11T12:33:23.371Z,6.70
2019-02-11T12:35:57.706Z,6.78
2019-02-11T12:38:28.253Z,6.88
2019-02-11T12:40:59.571Z,6.96
2019-02-11T12:43:29.781Z,6.67
2019-02-11T12:45:59.979Z,6.26
2019-02-11T12:48:30.209Z,6.21
2019-02-11T12:51:01.683Z,6.35
2019-02-11T12:53:34.477Z,6.46
2019-02-11T12:56:06.756Z,6.53
2019-02-11T12:58:37.147Z,6.66
2019-02-11T13:01:07.906Z,6.45
2019-02-11T13:03:38.700Z,6.71
2019-02-11T13:06:10.272Z,6.75
2019-02-11T13:08:47.090Z,7.08
2019-02-11T13:11:17.622Z,7.06
2019-02-11T13:13:50.643Z,7.13
2019-02-11T13:16:23.102Z,7.08
2019-02-11T13:18:53.478Z,6.96
2019-02-11T13:21:25.629Z,6.89
2019-02-11T13:23:55.883Z,6.87
2019-02-11T13:26:26.377Z,6.73
2019-02-11T13:29:01.165Z,6.69
2019-02-11T13:31:34.341Z,6.67
2019-02-11T13:34:10.261Z,6.87
2019-02-11T13:36:40.768Z,6.95
2019-02-11T13:39:12.546Z,7.09
2019-02-11T13:41:44.334Z,6.90
2019-02-11T13:44:14.610Z,6.97
2019-02-11T13:46:45.314Z,6.92
2019-02-11T13:49:17.269Z,6.78
2019-02-11T13:51:47.976Z,6.78
2019-02-11T13:54:18.481Z,6.80
2019-02-11T13:56:54.228Z,6.60
2019-02-11T13:59:26.778Z,6.96
2019-02-11T14:01:57.654Z,6.84
2019-02-11T14:04:29.241Z,6.63
2019-02-11T14:07:00.528Z,6.65
2019-02-11T14:09:33.256Z,6.60
2019-02-11T14:12:25.985Z,6.69
2019-02-11T14:15:00.793Z,6.57
2019-02-11T14:17:35.523Z,6.59
2019-02-11T14:20:07.115Z,6.69
2019-02-11T14:22:39.128Z,6.56
2019-02-11T14:25:10.789Z,6.43
2019-02-11T14:27:42.893Z,6.31
2019-02-11T14:30:14.211Z,6.26
2019-02-11T14:32:44.858Z,6.10
2019-02-11T14:35:16.801Z,6.01
2019-02-11T14:37:47.228Z,5.90
2019-02-11T14:40:19.338Z,6.00
2019-02-11T14:42:49.693Z,6.07
2019-02-11T14:45:20.003Z,6.00
2019-02-11T14:47:51.399Z,6.04
2019-02-11T14:50:21.699Z,6.06
2019-02-11T14:52:52.080Z,5.94
2019-02-11T14:55:22.459Z,5.76
2019-02-11T14:57:53.376Z,5.65
2019-02-11T15:00:26.872Z,5.79
2019-02-11T15:02:57.718Z,5.62
2019-02-11T15:05:30.204Z,5.75
2019-02-11T15:08:02.996Z,5.69
2019-02-11T15:10:33.841Z,5.63
2019-02-11T15:13:04.041Z,5.44
2019-02-11T15:15:34.682Z,5.41
2019-02-11T15:18:06.662Z,5.42
2019-02-11T15:21:00.821Z,5.44
2019-02-11T15:23:32.655Z,5.46
2019-02-11T15:26:09.124Z,5.53
2019-02-11T15:28:40.929Z,5.49
2019-02-11T15:31:12.891Z,5.51
2019-02-11T15:33:45.959Z,5.52
2019-02-11T15:36:16.969Z,5.48
2019-02-11T15:38:47.718Z,5.46
2019-02-11T15:41:20.567Z,5.44
2019-02-11T15:43:50.787Z,5.32
2019-02-11T15:46:21.279Z,5.30
2019-02-11T15:48:54.288Z,5.22
2019-02-11T15:51:24.697Z,5.24
2019-02-11T15:53:54.895Z,5.09
2019-02-11T15:56:25.091Z,5.10
2019-02-11T15:59:02.855Z,5.09
2019-02-11T16:01:33.472Z,5.07
2019-02-11T16:04:04.129Z,4.99
2019-02-11T16:06:40.122Z,4.98
2019-02-11T16:09:10.920Z,4.95
2019-02-11T16:11:41.516Z,4.91
2019-02-11T16:14:11.887Z,4.86
2019-02-11T16:16:43.318Z,4.81
2019-02-11T16:19:13.596Z,4.82
2019-02-11T16:21:45.049Z,4.81
2019-02-11T16:24:16.013Z,4.76
2019-02-11T16:26:48.204Z,4.73
2019-02-11T16:29:18.494Z,4.71
2019-02-11T16:31:49.009Z,4.68
2019-02-11T16:34:19.626Z,4.68
2019-02-11T16:37:02.990Z,4.66
2019-02-11T16:39:33.718Z,4.63
2019-02-11T16:42:10.372Z,4.69
2019-02-11T16:44:46.626Z,4.66
2019-02-11T16:47:24.583Z,4.65
2019-02-11T16:49:56.164Z,4.58
2019-02-11T16:52:26.786Z,4.62
2019-02-11T16:54:59.780Z,4.57
2019-02-11T16:57:30.715Z,4.54
2019-02-11T17:00:03.632Z,4.52
2019-02-11T17:02:34.952Z,4.56
2019-02-11T17:05:05.757Z,4.48
2019-02-11T17:07:41.719Z,4.49
2019-02-11T17:10:32.354Z,4.62
2019-02-11T17:13:02.912Z,4.58
2019-02-11T17:15:37.908Z,4.63
2019-02-11T17:18:17.982Z,4.62
2019-02-11T17:20:49.345Z,4.65
2019-02-11T17:23:21.142Z,4.78
2019-02-11T17:26:01.802Z,4.73
2019-02-11T17:28:36.992Z,4.77
2019-02-11T17:31:09.214Z,4.82
2019-02-11T17:33:39.606Z,4.85
2019-02-11T17:36:13.131Z,4.84
2019-02-11T17:38:49.632Z,4.87
2019-02-11T17:41:22.967Z,4.84
2019-02-11T17:43:54.859Z,4.83
2019-02-11T17:46:25.869Z,4.78
2019-02-11T17:48:57.523Z,4.63
2019-02-11T17:51:28.219Z,4.47
2019-02-11T17:53:58.489Z,4.36
2019-02-11T17:56:29.582Z,4.15
2019-02-11T17:58:59.799Z,4.12
2019-02-11T18:01:30.224Z,4.05
2019-02-11T18:04:01.279Z,3.97
2019-02-11T18:06:33.024Z,4.00
2019-02-11T18:09:08.085Z,3.91
2019-02-11T18:11:38.711Z,3.98
2019-02-11T18:14:09.546Z,4.11
2019-02-11T18:16:43.539Z,4.11
2019-02-11T18:19:14.545Z,4.03
2019-02-11T18:21:48.761Z,4.12
2019-02-11T18:24:26.261Z,4.19
2019-02-11T18:26:58.733Z,4.24
2019-02-11T18:29:32.558Z,4.27
2019-02-11T18:32:02.989Z,4.35
2019-02-11T18:34:36.027Z,4.34
2019-02-11T18:37:15.121Z,4.41
2019-02-11T18:39:45.514Z,4.45
2019-02-11T18:42:17.297Z,4.37
2019-02-11T18:45:02.785Z,4.34
2019-02-11T18:47:42.158Z,4.34
2019-02-11T18:50:14.535Z,4.29
2019-02-11T18:52:44.966Z,4.26
2019-02-11T18:55:18.339Z,4.28
2019-02-11T18:57:48.581Z,4.20
2019-02-11T19:00:26.548Z,4.16
2019-02-11T19:02:56.738Z,4.24
2019-02-11T19:05:27.494Z,4.24
2019-02-11T19:07:57.845Z,4.17
2019-02-11T19:10:29.659Z,4.14
2019-02-11T19:13:06.522Z,4.14
2019-02-11T19:15:41.381Z,4.15
2019-02-11T19:18:11.680Z,4.15
2019-02-11T19:20:41.873Z,4.16
2019-02-11T19:23:12.706Z,4.14
2019-02-11T19:25:48.818Z,4.16
2019-02-11T19:28:22.421Z,4.18
2019-02-11T19:30:55.125Z,4.24
2019-02-11T19:33:27.926Z,4.24
2019-02-11T19:35:58.504Z,4.26
2019-02-11T19:38:28.691Z,4.19
2019-02-11T19:40:59.559Z,4.22
2019-02-11T19:43:38.846Z,4.31
2019-02-11T19:46:15.975Z,4.30
2019-02-11T19:48:50.436Z,4.23
2019-02-11T19:51:20.916Z,4.30
2019-02-11T19:53:51.553Z,4.25
2019-02-11T19:56:28.302Z,4.28
2019-02-11T19:59:01.087Z,4.22
2019-02-11T20:01:32.260Z,4.20
2019-02-11T20:04:07.726Z,4.07
2019-02-11T20:06:37.310Z,3.93
2019-02-11T20:09:09.854Z,3.87
2019-02-11T20:11:50.286Z,3.91
2019-02-11T20:14:22.498Z,3.82
2019-02-11T20:16:58.132Z,3.83
2019-02-11T20:19:28.764Z,3.82
2019-02-11T20:22:02.900Z,3.83
2019-02-11T20:24:38.793Z,3.91
2019-02-11T20:27:17.972Z,4.04
2019-02-11T20:29:50.353Z,4.07
2019-02-11T20:32:22.232Z,4.15
2019-02-11T20:34:52.708Z,4.10
2019-02-11T20:37:24.811Z,4.08
2019-02-11T20:40:03.534Z,4.13
2019-02-11T20:42:32.603Z,4.24
2019-02-11T20:45:07.141Z,4.25
2019-02-11T20:47:38.916Z,4.21
2019-02-11T20:50:12.073Z,4.23
2019-02-11T20:52:42.605Z,4.16
2019-02-11T20:55:13.328Z,4.23
2019-02-11T20:57:43.927Z,4.28
2019-02-11T21:00:19.168Z,4.32
2019-02-11T21:02:49.818Z,4.33
2019-02-11T21:05:20.415Z,4.25
2019-02-11T21:07:59.480Z,4.23
2019-02-11T21:10:36.431Z,4.28
2019-02-11T21:13:08.621Z,4.27
2019-02-11T21:15:39.071Z,4.14
2019-02-11T21:18:09.363Z,3.99
2019-02-11T21:20:40.150Z,3.99
2019-02-11T21:23:12.479Z,3.99
2019-02-11T21:25:42.657Z,4.05
2019-02-11T21:28:13.540Z,4.05
2019-02-11T21:30:43.659Z,4.18
2019-02-11T21:33:13.882Z,4.21
2019-02-11T21:35:44.040Z,4.31
2019-02-11T21:38:14.267Z,4.22
2019-02-11T21:40:44.869Z,4.27
2019-02-11T21:43:23.145Z,4.25
2019-02-11T21:45:58.326Z,4.27
2019-02-11T21:48:28.787Z,4.24
2019-02-11T21:50:58.957Z,4.37
2019-02-11T21:53:29.780Z,4.39
2019-02-11T21:56:00.211Z,4.34
2019-02-11T21:58:30.448Z,4.31
2019-02-11T22:01:08.467Z,4.40
2019-02-11T22:03:40.243Z,4.33
2019-02-11T22:06:11.174Z,4.40
2019-02-11T22:08:43.661Z,4.28
2019-02-11T22:11:17.263Z,4.33
2019-02-11T22:13:49.100Z,4.25
2019-02-11T22:16:21.797Z,4.27
2019-02-11T22:18:52.209Z,4.34
2019-02-11T22:21:22.373Z,4.40
2019-02-11T22:23:52.702Z,4.38
2019-02-11T22:26:22.859Z,4.26
2019-02-11T22:28:53.099Z,4.27
2019-02-11T22:31:27.740Z,4.27
2019-02-11T22:33:59.127Z,4.25
2019-02-11T22:36:30.829Z,4.25
2019-02-11T22:39:05.383Z,4.27
2019-02-11T22:41:38.931Z,4.21
2019-02-11T22:44:10.672Z,4.12
2019-02-11T22:46:44.030Z,3.95
2019-02-11T22:49:14.325Z,3.91
2019-02-11T22:51:49.627Z,3.94
2019-02-11T22:54:25.582Z,3.93
2019-02-11T22:56:56.147Z,3.95
2019-02-11T22:59:26.403Z,3.89
2019-02-11T23:01:57.125Z,4.03
2019-02-11T23:04:28.298Z,4.16
2019-02-11T23:07:01.214Z,4.19
2019-02-11T23:09:32.934Z,4.25
2019-02-11T23:12:04.384Z,4.29
2019-02-11T23:14:42.510Z,4.27
2019-02-11T23:17:20.331Z,4.33
2019-02-11T23:19:52.136Z,4.40
2019-02-11T23:22:22.361Z,4.28
2019-02-11T23:24:55.472Z,4.27
2019-02-11T23:27:28.390Z,4.18
2019-02-11T23:30:36.022Z,4.20
2019-02-11T23:33:16.136Z,4.32
2019-02-11T23:35:48.681Z,4.33
2019-02-11T23:38:19.212Z,4.34
2019-02-11T23:40:49.501Z,4.41
2019-02-11T23:43:19.749Z,4.47
2019-02-11T23:45:52.763Z,4.51
2019-02-11T23:48:35.658Z,4.42
2019-02-11T23:51:05.879Z,4.44
2019-02-11T23:53:36.187Z,4.49
2019-02-11T23:56:06.242Z,4.47
2019-02-11T23:58:42.343Z,4.48
